Time;durP1;ratioP1;P1;durP2;ratioP2;P2;SDS_P1;SDS_P2;PMS_P1;PMS_P2;Temp;Humidity;BMP_temperature;BMP_pressure;BME280_temperature;BME280_humidity;BME280_pressure;Samples;Min_cycle;Max_cycle;Signal;HPM_P1;HPM_P2
2023/01/04 00:03:38;;;;;;;7.25;3.83;;;5.80;99.90;;;;;;10283087;23;20031;-78
2023/01/04 00:07:38;;;;;;;5.97;3.85;;;5.70;99.90;;;;;;10282364;23;20005;-78
2023/01/04 00:11:39;;;;;;;6.20;3.92;;;5.70;99.90;;;;;;10284311;23;20003;-79
2023/01/04 00:15:39;;;;;;;6.40;3.70;;;5.70;99.90;;;;;;10282534;23;20052;-80
2023/01/04 00:19:40;;;;;;;5.15;3.38;;;5.60;99.90;;;;;;10282314;23;20383;-80
2023/01/04 00:23:42;;;;;;;6.05;3.60;;;5.70;99.90;;;;;;10281719;23;20005;-79
2023/01/04 00:27:42;;;;;;;5.82;3.28;;;5.60;99.90;;;;;;10283101;23;20008;-79
2023/01/04 00:31:43;;;;;;;5.18;3.40;;;5.40;99.90;;;;;;10281973;23;20350;-79
2023/01/04 00:35:44;;;;;;;4.97;3.47;;;5.10;99.90;;;;;;10281718;23;20005;-77
2023/01/04 00:39:44;;;;;;;5.90;3.60;;;4.90;99.90;;;;;;10281956;23;20035;-79
2023/01/04 00:43:45;;;;;;;6.22;3.45;;;4.90;99.90;;;;;;10281991;23;20011;-78
2023/01/04 00:47:45;;;;;;;6.30;3.15;;;4.90;99.90;;;;;;10281536;23;20083;-79
2023/01/04 00:51:46;;;;;;;5.53;3.53;;;4.90;99.90;;;;;;10282728;23;20001;-79
2023/01/04 00:55:47;;;;;;;4.85;3.28;;;4.80;99.90;;;;;;10281477;23;20116;-78
2023/01/04 00:59:48;;;;;;;7.30;3.80;;;4.70;99.90;;;;;;10281473;23;20016;-79
2023/01/04 01:03:52;;;;;;;6.47;3.80;;;4.70;99.90;;;;;;10282637;23;20075;-79
2023/01/04 01:07:53;;;;;;;7.18;4.05;;;4.70;99.90;;;;;;10281008;23;20008;-79
2023/01/04 01:11:53;;;;;;;6.95;4.28;;;4.70;99.90;;;;;;10283260;23;20007;-79
2023/01/04 01:15:54;;;;;;;7.65;4.80;;;5.10;99.90;;;;;;10281056;23;20059;-78
2023/01/04 01:19:54;;;;;;;7.55;4.47;;;5.20;99.90;;;;;;10281458;23;20009;-79
2023/01/04 01:23:55;;;;;;;12.05;6.43;;;5.30;99.90;;;;;;10283076;23;20394;-78
2023/01/04 01:27:56;;;;;;;12.90;5.88;;;5.20;99.90;;;;;;10282326;23;20001;-80
2023/01/04 01:31:56;;;;;;;10.65;5.53;;;5.20;99.90;;;;;;10281390;23;20067;-79
2023/01/04 01:36:01;;;;;;;11.93;5.85;;;5.30;99.90;;;;;;10280819;23;20005;-79
2023/01/04 01:40:01;;;;;;;10.90;6.07;;;5.30;99.90;;;;;;10283301;23;20009;-79
2023/01/04 01:44:04;;;;;;;12.20;6.40;;;5.40;99.90;;;;;;10281414;23;20008;-79
2023/01/04 01:48:11;;;;;;;12.77;6.45;;;5.50;99.90;;;;;;10285523;23;20000;-78
2023/01/04 01:52:26;;;;;;;13.75;6.82;;;5.70;99.90;;;;;;10284661;23;20066;-77
2023/01/04 01:56:29;;;;;;;14.18;6.40;;;5.60;99.90;;;;;;10285067;23;20067;-79
2023/01/04 02:00:30;;;;;;;13.50;6.40;;;5.70;99.90;;;;;;10285370;23;20021;-79
2023/01/04 02:04:31;;;;;;;14.25;6.80;;;5.80;99.90;;;;;;10286528;23;20004;-79
2023/01/04 02:08:32;;;;;;;10.77;5.80;;;6.00;99.90;;;;;;10284007;23;20111;-78
2023/01/04 02:12:33;;;;;;;14.90;7.00;;;6.00;99.90;;;;;;10284126;23;20004;-78
2023/01/04 02:17:03;;;;;;;12.13;6.18;;;6.00;99.90;;;;;;10285052;23;20000;-79
2023/01/04 02:21:16;;;;;;;13.95;6.70;;;5.80;99.90;;;;;;10284119;23;20001;-80
2023/01/04 02:25:30;;;;;;;10.85;6.03;;;5.90;99.90;;;;;;10285024;23;20059;-79
2023/01/04 02:29:49;;;;;;;13.98;6.78;;;5.90;99.90;;;;;;10284702;23;20016;-79
2023/01/04 02:34:12;;;;;;;14.40;7.70;;;5.90;99.90;;;;;;10283403;23;20012;-79
2023/01/04 02:38:30;;;;;;;13.75;6.95;;;6.10;99.90;;;;;;10283513;23;20005;-79
2023/01/04 02:47:11;;;;;;;14.30;6.38;;;6.00;99.90;;;;;;10285131;23;20074;-78
2023/01/04 02:51:32;;;;;;;13.27;7.13;;;5.80;99.90;;;;;;10284815;23;20011;-80
2023/01/04 02:55:44;;;;;;;15.27;7.40;;;5.90;99.90;;;;;;10283538;23;20019;-79
2023/01/04 03:00:02;;;;;;;15.93;6.95;;;6.00;99.90;;;;;;10285238;23;20035;-79
2023/01/04 03:08:59;;;;;;;14.65;7.03;;;6.10;99.90;;;;;;10285113;23;20024;-78
2023/01/04 03:13:25;;;;;;;14.80;6.93;;;6.20;99.90;;;;;;10284002;23;20097;-79
2023/01/04 03:17:33;;;;;;;13.60;6.90;;;5.90;99.90;;;;;;10289434;23;20013;-80
2023/01/04 03:21:36;;;;;;;13.75;6.68;;;6.10;99.90;;;;;;10287726;23;20009;-80
2023/01/04 03:52:15;;;;;;;11.02;5.95;;;6.20;99.90;;;;;;10288025;23;20016;-79
2023/01/04 03:56:18;;;;;;;12.90;6.47;;;6.00;99.90;;;;;;10286300;23;20059;-79
2023/01/04 04:00:19;;;;;;;12.48;5.93;;;6.00;99.90;;;;;;10286031;23;20070;-80
2023/01/04 04:08:39;;;;;;;16.77;6.30;;;5.70;99.90;;;;;;10286399;23;20019;-79
2023/01/04 04:12:39;;;;;;;12.75;6.40;;;5.60;99.90;;;;;;10284803;23;20024;-80
2023/01/04 04:16:40;;;;;;;15.20;7.18;;;5.60;99.90;;;;;;10286627;23;20001;-78
2023/01/04 04:20:41;;;;;;;13.30;6.70;;;5.40;99.90;;;;;;10284685;23;20012;-80
2023/01/04 04:24:41;;;;;;;14.88;6.85;;;5.60;99.90;;;;;;10284292;23;20470;-79
2023/01/04 04:28:42;;;;;;;13.68;6.57;;;5.80;99.90;;;;;;10284407;23;20012;-79
2023/01/04 04:32:43;;;;;;;10.15;5.80;;;6.10;99.90;;;;;;10285153;23;20007;-79
2023/01/04 04:36:44;;;;;;;12.43;5.53;;;6.10;99.90;;;;;;10283040;23;20001;-80
2023/01/04 04:45:04;;;;;;;11.20;5.38;;;6.20;99.90;;;;;;10283986;23;20023;-79
2023/01/04 04:49:05;;;;;;;8.73;4.53;;;6.10;99.90;;;;;;10282915;23;20008;-79
2023/01/04 04:53:06;;;;;;;10.73;5.22;;;6.10;99.90;;;;;;10284029;23;20011;-80
2023/01/04 04:57:06;;;;;;;7.43;3.85;;;6.00;99.90;;;;;;10283063;23;20040;-80
2023/01/04 05:01:07;;;;;;;7.80;4.20;;;6.10;99.90;;;;;;10282660;23;20012;-79
2023/01/04 05:05:08;;;;;;;9.80;4.40;;;6.30;99.90;;;;;;10283700;23;20343;-80
2023/01/04 05:09:10;;;;;;;8.50;3.88;;;6.10;99.90;;;;;;10283720;23;20001;-80
2023/01/04 05:13:12;;;;;;;8.98;4.43;;;6.30;99.90;;;;;;10282793;23;20040;-79
2023/01/04 05:17:12;;;;;;;8.88;4.50;;;6.30;99.90;;;;;;10284549;23;20000;-80
2023/01/04 05:21:13;;;;;;;8.43;4.28;;;6.10;99.90;;;;;;10284829;23;20008;-80
2023/01/04 05:25:13;;;;;;;7.72;4.25;;;6.20;99.90;;;;;;10285570;23;20009;-80
2023/01/04 05:30:49;;;;;;;8.30;3.72;;;6.20;99.90;;;;;;10286889;23;20115;-79
2023/01/04 05:33:34;;;;;;;7.28;4.22;;;6.30;99.90;;;;;;10287513;23;20070;-79
2023/01/04 05:37:35;;;;;;;8.95;4.53;;;6.30;99.90;;;;;;10285775;23;20011;-79
2023/01/04 05:45:55;;;;;;;7.72;3.97;;;6.10;99.90;;;;;;10289225;23;20015;-79
2023/01/04 05:49:56;;;;;;;7.40;4.45;;;6.00;99.90;;;;;;10287751;23;20008;-79
2023/01/04 05:53:56;;;;;;;5.75;2.80;;;6.00;99.90;;;;;;10285534;23;20019;-80
2023/01/04 05:57:57;;;;;;;7.68;4.00;;;6.10;99.90;;;;;;10285754;23;20013;-79
2023/01/04 06:01:58;;;;;;;9.25;5.00;;;6.20;99.90;;;;;;10284850;23;20454;-79
2023/01/04 06:05:58;;;;;;;8.48;4.85;;;6.20;99.90;;;;;;10284951;23;20136;-80
2023/01/04 06:09:59;;;;;;;8.73;4.80;;;6.20;99.90;;;;;;10286715;23;20017;-80
2023/01/04 06:13:59;;;;;;;7.97;4.57;;;6.20;99.90;;;;;;10285068;23;20016;-79
2023/01/04 06:18:00;;;;;;;7.65;3.83;;;6.30;99.90;;;;;;10284542;23;20005;-80
2023/01/04 06:22:00;;;;;;;8.00;4.05;;;6.30;99.90;;;;;;10285145;23;20517;-80
2023/01/04 06:26:01;;;;;;;7.75;4.13;;;6.20;99.90;;;;;;10285599;23;20066;-80
2023/01/04 06:30:02;;;;;;;6.63;3.75;;;6.00;99.90;;;;;;10285415;23;20005;-79
2023/01/04 06:34:02;;;;;;;8.50;4.43;;;6.00;99.90;;;;;;10285491;23;20040;-80
2023/01/04 06:38:03;;;;;;;9.65;4.45;;;5.90;99.90;;;;;;10285348;23;20008;-80
2023/01/04 06:42:04;;;;;;;7.90;4.57;;;5.70;99.90;;;;;;10285139;23;20589;-80
2023/01/04 06:46:04;;;;;;;8.18;3.90;;;5.50;99.90;;;;;;10287449;23;20000;-80
2023/01/04 06:50:05;;;;;;;7.63;4.25;;;5.50;99.90;;;;;;10285912;23;20011;-80
2023/01/04 06:54:07;;;;;;;8.27;4.15;;;5.50;99.90;;;;;;10285384;23;20064;-80
2023/01/04 06:58:08;;;;;;;8.73;4.65;;;5.60;99.90;;;;;;10286698;23;20005;-80
2023/01/04 07:02:13;;;;;;;8.68;4.13;;;5.70;99.90;;;;;;10283714;23;20000;-80
2023/01/04 07:06:14;;;;;;;8.40;4.70;;;5.80;99.90;;;;;;10284287;23;20015;-79
2023/01/04 07:10:14;;;;;;;10.10;4.57;;;5.90;99.90;;;;;;10284126;23;20005;-79
2023/01/04 07:14:15;;;;;;;8.10;4.55;;;5.90;99.90;;;;;;10286636;23;19997;-79
2023/01/04 07:18:15;;;;;;;6.95;3.63;;;5.90;99.90;;;;;;10288404;23;20011;-80
2023/01/04 07:22:16;;;;;;;8.25;4.63;;;6.00;99.90;;;;;;10286453;23;20005;-80
2023/01/04 07:26:16;;;;;;;8.93;4.25;;;6.10;99.90;;;;;;10285804;23;20020;-79
2023/01/04 07:30:17;;;;;;;8.60;4.13;;;6.20;99.90;;;;;;10286190;23;20009;-79
2023/01/04 07:34:20;;;;;;;8.38;3.72;;;6.30;99.90;;;;;;10286855;23;20075;-80
2023/01/04 07:38:21;;;;;;;9.13;4.43;;;6.30;99.90;;;;;;10286206;23;20201;-79
2023/01/04 07:42:21;;;;;;;9.25;4.10;;;6.40;99.90;;;;;;10286598;23;20004;-79
2023/01/04 07:46:22;;;;;;;8.90;4.90;;;6.40;99.90;;;;;;10286807;23;20017;-79
2023/01/04 07:50:22;;;;;;;10.18;4.15;;;6.50;99.90;;;;;;10286570;23;20021;-80
2023/01/04 07:54:23;;;;;;;10.82;4.70;;;6.50;99.90;;;;;;10286293;23;20478;-79
2023/01/04 07:58:24;;;;;;;7.55;4.63;;;6.60;99.90;;;;;;10283805;23;20051;-78
2023/01/04 08:02:25;;;;;;;7.72;4.50;;;6.60;99.90;;;;;;10283455;23;20103;-79
2023/01/04 08:06:26;;;;;;;9.20;4.75;;;6.70;99.90;;;;;;10282985;23;20009;-79
2023/01/04 08:10:26;;;;;;;8.38;4.45;;;6.80;99.90;;;;;;10283720;23;20093;-79
2023/01/04 08:14:27;;;;;;;7.47;4.07;;;6.70;99.90;;;;;;10284027;23;20009;-79
2023/01/04 08:18:28;;;;;;;9.63;4.65;;;6.80;99.90;;;;;;10285122;23;20005;-80
2023/01/04 08:22:28;;;;;;;7.47;4.40;;;6.80;99.90;;;;;;10283208;23;20019;-78
2023/01/04 08:26:29;;;;;;;9.52;4.25;;;6.90;99.90;;;;;;10284813;23;20059;-79
2023/01/04 08:30:29;;;;;;;7.55;4.50;;;6.80;99.90;;;;;;10284856;23;20055;-79
2023/01/04 08:34:30;;;;;;;3.78;2.30;;;6.90;99.90;;;;;;10282688;23;20039;-79
2023/01/04 08:38:31;;;;;;;7.70;4.07;;;6.90;99.90;;;;;;10283278;23;20498;-78
2023/01/04 08:42:31;;;;;;;7.78;4.35;;;6.90;99.90;;;;;;10283035;23;20004;-79
2023/01/04 08:46:32;;;;;;;7.35;4.13;;;7.00;99.90;;;;;;10282621;23;20008;-78
2023/01/04 08:50:32;;;;;;;7.90;4.50;;;7.00;99.90;;;;;;10283936;23;20083;-80
2023/01/04 08:54:33;;;;;;;7.82;4.07;;;7.00;99.90;;;;;;10282649;23;20351;-79
2023/01/04 08:58:35;;;;;;;7.30;4.22;;;7.00;99.90;;;;;;10282472;23;20027;-78
2023/01/04 09:02:36;;;;;;;8.00;4.10;;;7.10;99.90;;;;;;10282003;23;20469;-79
2023/01/04 09:06:37;;;;;;;7.20;3.85;;;7.20;99.90;;;;;;10282246;23;20024;-79
2023/01/04 09:10:38;;;;;;;5.28;3.50;;;7.30;99.90;;;;;;10283907;23;20008;-79
2023/01/04 09:14:39;;;;;;;7.95;5.43;;;7.20;99.90;;;;;;10282256;23;20044;-79
2023/01/04 09:18:40;;;;;;;4.43;3.03;;;7.10;99.90;;;;;;10281880;23;20013;-79
2023/01/04 09:22:40;;;;;;;8.93;5.03;;;7.20;99.90;;;;;;10282080;23;20020;-79
2023/01/04 09:26:41;;;;;;;8.32;4.43;;;7.20;99.90;;;;;;10283330;23;20011;-79
2023/01/04 09:30:41;;;;;;;4.25;2.08;;;7.20;99.90;;;;;;10284276;23;20005;-79
2023/01/04 09:34:42;;;;;;;6.55;3.58;;;7.20;99.90;;;;;;10283644;23;20009;-79
2023/01/04 09:38:42;;;;;;;5.80;3.33;;;7.20;99.90;;;;;;10283798;23;20092;-79
2023/01/04 09:42:44;;;;;;;5.97;4.15;;;7.20;99.90;;;;;;10282980;23;20068;-82
2023/01/04 09:46:50;;;;;;;7.78;4.22;;;7.30;99.90;;;;;;10281659;23;20009;-86
2023/01/04 09:51:04;;;;;;;6.25;3.67;;;7.30;99.90;;;;;;10282062;23;20047;-86
2023/01/04 09:55:22;;;;;;;7.93;4.28;;;7.30;99.90;;;;;;10282898;23;19997;-86
2023/01/04 09:59:30;;;;;;;6.88;4.00;;;7.50;99.90;;;;;;10282484;23;20017;-80
2023/01/04 10:03:34;;;;;;;7.47;4.22;;;7.90;99.90;;;;;;10283376;23;20017;-81
2023/01/04 10:07:35;;;;;;;7.20;3.70;;;7.70;99.90;;;;;;10286128;23;20009;-80
2023/01/04 10:12:00;;;;;;;7.40;4.28;;;7.60;99.90;;;;;;10286048;23;20027;-81
2023/01/04 10:16:32;;;;;;;6.18;3.90;;;7.60;99.90;;;;;;10288103;23;19996;-81
2023/01/04 10:20:35;;;;;;;8.45;4.25;;;7.60;99.90;;;;;;10287456;23;20008;-82
2023/01/04 10:24:59;;;;;;;4.55;2.80;;;7.40;99.90;;;;;;10287816;23;20019;-81
2023/01/04 10:29:16;;;;;;;6.43;3.65;;;7.40;99.90;;;;;;10289524;23;20481;-81
2023/01/04 10:33:47;;;;;;;4.78;3.22;;;7.30;99.90;;;;;;10287776;23;20000;-80
2023/01/04 10:37:50;;;;;;;;;;;7.20;99.90;;;;;;10236246;23;20099;-79
2023/01/04 10:41:55;;;;;;;6.50;3.70;;;7.20;99.90;;;;;;10287464;23;19900;-78
2023/01/04 10:46:13;;;;;;;5.30;3.70;;;7.20;99.90;;;;;;10286814;23;20031;-80
2023/01/04 10:50:23;;;;;;;6.93;4.00;;;7.20;99.90;;;;;;10287045;23;20466;-79
2023/01/04 10:54:35;;;;;;;;;;;7.20;99.90;;;;;;10287077;23;20001;-80
2023/01/04 10:58:51;;;;;;;5.13;3.35;;;7.10;99.90;;;;;;10286835;23;20216;-79
2023/01/04 11:02:57;;;;;;;7.55;2.72;;;7.10;99.90;;;;;;10288686;23;20465;-80
2023/01/04 11:07:06;;;;;;;8.65;4.13;;;7.20;99.90;;;;;;10287517;23;20009;-79
2023/01/04 11:11:11;;;;;;;7.15;4.30;;;7.30;99.90;;;;;;10287855;23;20020;-81
2023/01/04 11:15:12;;;;;;;5.65;3.45;;;7.40;99.90;;;;;;10287140;23;20371;-80
2023/01/04 11:19:14;;;;;;;5.15;2.95;;;7.40;99.90;;;;;;10287782;23;20096;-81
2023/01/04 11:23:19;;;;;;;5.60;3.40;;;7.40;99.90;;;;;;10286847;23;20027;-81
2023/01/04 11:27:29;;;;;;;7.63;3.63;;;7.60;99.90;;;;;;10286438;23;20035;-81
2023/01/04 11:31:48;;;;;;;6.50;3.58;;;7.40;99.90;;;;;;10287930;23;20344;-81
2023/01/04 11:35:52;;;;;;;7.18;4.43;;;7.50;99.90;;;;;;10286136;23;20423;-80
2023/01/04 11:40:15;;;;;;;6.80;4.00;;;7.50;99.90;;;;;;10285516;23;20251;-80
2023/01/04 11:44:18;;;;;;;6.05;3.30;;;7.60;99.90;;;;;;10285377;23;20015;-80
2023/01/04 11:48:18;;;;;;;6.40;2.80;;;7.80;99.90;;;;;;10286481;23;20000;-80
2023/01/04 11:52:38;;;;;;;7.88;4.13;;;7.90;99.90;;;;;;10284500;23;20064;-81
2023/01/04 11:57:02;;;;;;;7.22;3.22;;;7.90;99.90;;;;;;10286194;23;20032;-80
2023/01/04 12:01:03;;;;;;;7.28;3.10;;;8.00;99.90;;;;;;10286280;23;20023;-81
2023/01/04 12:05:19;;;;;;;6.43;3.33;;;8.00;99.90;;;;;;10281841;23;20145;-80
2023/01/04 12:09:20;;;;;;;4.57;2.67;;;8.10;99.90;;;;;;10281895;23;20019;-81
2023/01/04 12:13:21;;;;;;;7.53;3.58;;;8.20;99.90;;;;;;10277787;23;20095;-81
2023/01/04 12:17:28;;;;;;;8.32;4.25;;;8.20;99.90;;;;;;10281250;23;20001;-79
2023/01/04 12:21:33;;;;;;;6.18;3.42;;;8.50;99.90;;;;;;10280992;23;20328;-80
2023/01/04 12:25:41;;;;;;;6.18;3.75;;;8.60;99.90;;;;;;10281367;23;20009;-80
2023/01/04 12:29:55;;;;;;;4.93;3.20;;;8.50;99.90;;;;;;10282201;23;20017;-80
2023/01/04 12:33:58;;;;;;;6.28;3.47;;;8.50;99.90;;;;;;10281993;23;20032;-79
2023/01/04 12:37:59;;;;;;;5.35;2.53;;;8.40;99.90;;;;;;10283535;23;20009;-80
2023/01/04 12:41:59;;;;;;;5.70;3.42;;;8.60;99.90;;;;;;10283967;23;20071;-81
2023/01/04 12:51:16;;;;;;;6.43;3.17;;;8.90;99.90;;;;;;10284337;23;20016;-80
2023/01/04 12:55:25;;;;;;;6.45;2.63;;;9.00;99.90;;;;;;10278889;23;20015;-80
2023/01/04 12:59:58;;;;;;;5.72;3.10;;;9.20;99.90;;;;;;10282050;23;20021;-80
2023/01/04 13:04:02;;;;;;;7.88;2.90;;;9.20;99.90;;;;;;10256931;22;20068;-81
2023/01/04 13:08:09;;;;;;;6.43;3.03;;;9.20;99.90;;;;;;10281323;23;20028;-80
2023/01/04 13:12:44;;;;;;;4.78;3.03;;;9.10;99.90;;;;;;10283924;23;19997;-83
2023/01/04 13:17:09;;;;;;;4.07;2.42;;;9.10;99.90;;;;;;10279974;23;20008;-80
2023/01/04 13:21:25;;;;;;;6.93;3.72;;;9.20;99.90;;;;;;10282480;23;20084;-81
2023/01/04 13:25:25;;;;;;;6.38;2.45;;;9.10;99.90;;;;;;10282691;23;20445;-82
2023/01/04 13:29:32;;;;;;;4.50;2.28;;;9.10;99.90;;;;;;10280922;23;20012;-80
2023/01/04 13:33:33;;;;;;;3.63;2.53;;;8.90;99.90;;;;;;10279992;23;20008;-81
2023/01/04 13:37:41;;;;;;;4.20;2.25;;;8.80;99.90;;;;;;10284670;23;20023;-81
2023/01/04 13:41:43;;;;;;;3.70;2.13;;;8.70;99.90;;;;;;10284470;23;20013;-80
2023/01/04 13:45:54;;;;;;;3.28;1.98;;;8.60;99.90;;;;;;10284997;23;20012;-80
2023/01/04 13:49:55;;;;;;;3.38;2.05;;;8.70;99.90;;;;;;10284637;23;20852;-79
2023/01/04 13:53:57;;;;;;;3.78;2.75;;;8.70;99.90;;;;;;10286053;23;20028;-79
2023/01/04 13:58:03;;;;;;;4.18;2.30;;;8.60;99.90;;;;;;10283703;23;20039;-80
2023/01/04 14:02:16;;;;;;;4.55;2.95;;;8.70;99.90;;;;;;10283982;23;20000;-81
2023/01/04 14:06:21;;;;;;;5.60;3.10;;;8.70;99.90;;;;;;10286147;23;20385;-80
2023/01/04 14:10:21;;;;;;;4.72;2.85;;;8.70;99.90;;;;;;10285383;23;20384;-82
2023/01/04 14:14:37;;;;;;;5.65;3.25;;;8.80;99.90;;;;;;10286455;23;20005;-80
2023/01/04 14:18:38;;;;;;;4.80;2.70;;;8.90;99.90;;;;;;10287130;23;20075;-81
2023/01/04 14:22:40;;;;;;;5.13;2.75;;;8.90;99.90;;;;;;10287668;23;20487;-81
2023/01/04 14:26:42;;;;;;;5.47;3.22;;;8.80;99.90;;;;;;10285206;23;20350;-80
2023/01/04 14:30:45;;;;;;;4.13;2.70;;;8.70;99.90;;;;;;10282791;23;20451;-82
2023/01/04 14:34:45;;;;;;;5.15;2.95;;;8.70;99.90;;;;;;10283478;23;20028;-80
2023/01/04 14:39:08;;;;;;;3.42;2.05;;;8.70;99.90;;;;;;10286097;23;20032;-81
2023/01/04 14:43:44;;;;;;;4.03;2.22;;;8.70;99.90;;;;;;10286336;23;20071;-81
2023/01/04 14:47:45;;;;;;;5.35;2.20;;;8.70;99.90;;;;;;10286568;23;20567;-80
2023/01/04 14:51:52;;;;;;;4.03;2.08;;;8.60;99.90;;;;;;10283320;23;20011;-81
2023/01/04 14:55:55;;;;;;;5.55;3.92;;;8.60;99.90;;;;;;10288318;23;20012;-80
2023/01/04 14:59:56;;;;;;;5.88;2.38;;;8.40;99.90;;;;;;10289036;23;20089;-80
2023/01/04 15:03:59;;;;;;;3.60;2.47;;;8.40;99.90;;;;;;10282593;23;20478;-82
2023/01/04 15:08:01;;;;;;;4.18;2.50;;;8.20;99.90;;;;;;10285678;23;20004;-82
2023/01/04 15:12:02;;;;;;;2.75;1.92;;;8.10;99.90;;;;;;10286041;23;20000;-82
2023/01/04 15:16:03;;;;;;;3.53;2.05;;;8.00;99.90;;;;;;10286938;23;20004;-82
2023/01/04 15:20:04;;;;;;;2.90;2.00;;;7.90;99.90;;;;;;10286481;23;20016;-80
2023/01/04 15:24:06;;;;;;;3.17;1.90;;;7.90;99.90;;;;;;10285592;23;20377;-81
2023/01/04 15:28:07;;;;;;;4.32;2.38;;;7.90;99.90;;;;;;10284418;23;20306;-80
2023/01/04 15:32:08;;;;;;;3.83;2.47;;;7.80;99.90;;;;;;10285726;23;20000;-78
2023/01/04 15:36:14;;;;;;;5.22;2.50;;;7.80;99.90;;;;;;10283280;23;20005;-79
2023/01/04 15:40:17;;;;;;;6.38;2.15;;;7.90;99.90;;;;;;10281543;23;20013;-79
2023/01/04 15:44:17;;;;;;;4.00;1.95;;;7.90;99.90;;;;;;10282742;23;20410;-78
2023/01/04 15:48:18;;;;;;;5.63;2.47;;;8.00;99.90;;;;;;10283855;23;20020;-81
2023/01/04 15:52:19;;;;;;;3.00;2.20;;;7.90;99.90;;;;;;10258237;23;20005;-81
2023/01/04 15:56:20;;;;;;;4.93;2.47;;;7.80;99.90;;;;;;10282327;23;20004;-79
2023/01/04 16:00:21;;;;;;;11.45;5.15;;;7.80;99.90;;;;;;10282097;23;20043;-77
2023/01/04 16:04:22;;;;;;;7.40;4.70;;;7.80;99.90;;;;;;10277455;23;20017;-78
2023/01/04 16:08:22;;;;;;;7.70;4.18;;;7.80;99.90;;;;;;10282480;23;20008;-78
2023/01/04 16:12:41;;;;;;;6.95;3.78;;;7.90;99.90;;;;;;10278971;23;20008;-78
2023/01/04 16:16:41;;;;;;;5.85;3.95;;;7.90;99.90;;;;;;10277557;23;20482;-79
2023/01/04 16:20:42;;;;;;;7.93;4.38;;;7.70;99.90;;;;;;10276502;23;20014;-78
2023/01/04 16:24:42;;;;;;;6.82;3.97;;;7.70;99.90;;;;;;10278978;23;20008;-79
2023/01/04 16:28:49;;;;;;;4.22;2.58;;;7.70;99.90;;;;;;10276355;23;20017;-78
2023/01/04 16:32:50;;;;;;;5.93;3.03;;;7.70;99.90;;;;;;10280486;23;20036;-78
2023/01/04 16:36:50;;;;;;;10.25;6.50;;;7.70;99.90;;;;;;10281150;23;20491;-79
2023/01/04 16:40:59;;;;;;;9.75;4.97;;;7.70;99.90;;;;;;10277177;23;20056;-77
2023/01/04 16:45:00;;;;;;;3.05;2.17;;;7.70;99.90;;;;;;10282874;23;20001;-78
2023/01/04 16:49:06;;;;;;;3.88;2.35;;;7.70;99.90;;;;;;10285540;23;20000;-78
2023/01/04 16:53:07;;;;;;;5.65;3.72;;;7.70;99.90;;;;;;10331098;22;20036;-81
2023/01/04 16:57:07;;;;;;;6.25;4.60;;;7.80;99.90;;;;;;10341230;22;20113;-82
2023/01/04 17:01:09;;;;;;;7.90;4.22;;;7.80;99.90;;;;;;10320111;23;20005;-82
2023/01/04 17:05:09;;;;;;;3.65;2.33;;;7.80;99.90;;;;;;10288358;23;20011;-82
2023/01/04 17:09:19;;;;;;;4.82;2.70;;;7.80;99.90;;;;;;10288572;23;20012;-82
2023/01/04 17:13:19;;;;;;;5.53;2.50;;;7.80;99.90;;;;;;10287597;23;20017;-81
2023/01/04 17:17:20;;;;;;;2.65;1.75;;;7.80;99.90;;;;;;10281558;23;20064;-82
2023/01/04 17:21:23;;;;;;;5.20;3.28;;;7.90;99.90;;;;;;10283656;23;20096;-81
2023/01/04 17:25:23;;;;;;;3.22;1.73;;;7.90;99.90;;;;;;10281725;23;20409;-81
2023/01/04 17:29:24;;;;;;;3.70;2.78;;;7.90;99.90;;;;;;10283468;23;20001;-81
2023/01/04 17:33:24;;;;;;;3.40;1.80;;;8.00;99.90;;;;;;10283168;23;20205;-81
2023/01/04 17:37:25;;;;;;;4.18;2.38;;;8.10;99.90;;;;;;10282944;23;20104;-81
2023/01/04 17:41:28;;;;;;;4.57;2.20;;;8.10;99.90;;;;;;10283277;23;20698;-81
2023/01/04 17:45:29;;;;;;;9.30;4.60;;;8.10;99.90;;;;;;10282516;23;20009;-82
2023/01/04 17:49:29;;;;;;;5.95;3.42;;;8.00;99.90;;;;;;10283496;23;20013;-82
2023/01/04 17:53:30;;;;;;;2.72;1.58;;;7.90;99.90;;;;;;10283089;23;20020;-82
2023/01/04 17:57:33;;;;;;;3.63;2.47;;;7.90;99.90;;;;;;10278665;23;20001;-80
2023/01/04 18:01:34;;;;;;;5.50;2.30;;;7.80;99.90;;;;;;10281963;23;20013;-81
2023/01/04 18:05:35;;;;;;;4.22;2.05;;;7.80;99.90;;;;;;10281733;23;20009;-81
2023/01/04 18:09:35;;;;;;;3.63;2.35;;;7.80;99.90;;;;;;10282956;23;20427;-81
2023/01/04 18:13:39;;;;;;;3.72;2.20;;;7.80;99.90;;;;;;10282862;23;20012;-80
2023/01/04 18:17:40;;;;;;;5.03;2.45;;;7.80;99.90;;;;;;10283105;23;20012;-82
2023/01/04 18:21:40;;;;;;;3.80;2.20;;;7.70;99.90;;;;;;10282426;23;20009;-82
2023/01/04 18:25:41;;;;;;;4.07;2.10;;;7.70;99.90;;;;;;10281959;23;20016;-81
2023/01/04 18:29:41;;;;;;;2.90;1.83;;;7.60;99.90;;;;;;10285215;23;20460;-82
2023/01/04 18:33:42;;;;;;;1.55;0.90;;;7.60;99.90;;;;;;10285510;23;20011;-81
2023/01/04 18:37:44;;;;;;;2.85;1.45;;;7.70;99.90;;;;;;10285267;23;20009;-82
2023/01/04 18:41:45;;;;;;;4.32;1.63;;;7.70;99.90;;;;;;10285389;23;20012;-81
2023/01/04 18:45:45;;;;;;;3.47;1.90;;;7.70;99.90;;;;;;10285915;23;20004;-82
2023/01/04 18:49:49;;;;;;;2.38;1.70;;;7.70;99.90;;;;;;10286482;23;20015;-82
2023/01/04 18:53:49;;;;;;;4.90;2.28;;;7.70;99.90;;;;;;10284891;23;20018;-82
2023/01/04 18:57:50;;;;;;;3.17;2.13;;;7.80;99.90;;;;;;10287934;23;20351;-82
2023/01/04 19:01:50;;;;;;;2.92;2.00;;;7.70;99.90;;;;;;10286428;23;20009;-82
2023/01/04 19:05:51;;;;;;;3.35;1.85;;;7.80;99.90;;;;;;10284555;23;20446;-82
2023/01/04 19:09:52;;;;;;;2.95;1.27;;;7.80;99.90;;;;;;10284058;23;20028;-82
2023/01/04 19:13:53;;;;;;;2.05;1.45;;;7.90;99.90;;;;;;10285357;23;20013;-82
2023/01/04 19:17:55;;;;;;;5.03;1.88;;;8.00;99.90;;;;;;10288266;23;20007;-82
2023/01/04 19:21:56;;;;;;;2.58;1.65;;;8.10;99.90;;;;;;10285571;23;20001;-82
2023/01/04 19:25:57;;;;;;;2.88;1.50;;;8.20;99.90;;;;;;10284197;23;20075;-80
2023/01/04 19:29:57;;;;;;;2.90;1.60;;;8.20;99.90;;;;;;10283815;23;20017;-80
2023/01/04 19:33:58;;;;;;;1.95;1.40;;;8.30;99.90;;;;;;10287520;23;20347;-81
2023/01/04 19:37:59;;;;;;;4.05;1.50;;;8.20;99.90;;;;;;10284711;23;20009;-81
2023/01/04 19:41:59;;;;;;;4.53;1.75;;;8.30;99.90;;;;;;10285907;23;20005;-81
2023/01/04 19:46:00;;;;;;;3.13;1.50;;;8.50;99.90;;;;;;10285789;23;20023;-81
2023/01/04 19:50:00;;;;;;;2.22;1.50;;;8.50;99.90;;;;;;10287650;23;20016;-81
2023/01/04 19:54:01;;;;;;;2.70;1.42;;;8.60;99.90;;;;;;10285936;23;20009;-81
2023/01/04 19:58:01;;;;;;;1.70;1.40;;;8.60;99.90;;;;;;10288559;23;20005;-81
2023/01/04 20:02:02;;;;;;;8.10;4.28;;;8.60;99.90;;;;;;10285753;23;20362;-81
2023/01/04 20:06:04;;;;;;;4.97;2.63;;;8.70;99.90;;;;;;10284235;23;20016;-81
2023/01/04 20:10:05;;;;;;;1.65;1.00;;;8.70;99.90;;;;;;10285419;23;20004;-81
2023/01/04 20:14:06;;;;;;;1.45;1.05;;;8.80;99.90;;;;;;10285687;23;20031;-81
2023/01/04 20:18:06;;;;;;;2.38;1.10;;;8.80;99.90;;;;;;10285836;23;19996;-82
2023/01/04 20:22:08;;;;;;;1.92;1.10;;;9.00;99.90;;;;;;10284471;23;20067;-81
2023/01/04 20:26:13;;;;;;;1.35;1.20;;;8.90;99.90;;;;;;10285902;23;20005;-82
2023/01/04 20:30:13;;;;;;;1.60;1.00;;;9.00;99.90;;;;;;10289248;23;20035;-82
2023/01/04 20:34:14;;;;;;;1.88;1.27;;;9.10;99.90;;;;;;10287684;23;20020;-81
2023/01/04 20:38:14;;;;;;;1.67;1.00;;;9.10;99.90;;;;;;10285800;23;20004;-81
2023/01/04 20:46:34;;;;;;;0.95;0.63;;;9.20;99.90;;;;;;10287285;23;20363;-81
2023/01/04 20:50:35;;;;;;;2.05;1.10;;;9.30;99.90;;;;;;10286014;23;20008;-81
2023/01/04 20:54:35;;;;;;;1.20;0.90;;;9.30;99.90;;;;;;10283973;23;20012;-82
2023/01/04 20:58:37;;;;;;;1.20;0.90;;;9.40;99.90;;;;;;10283939;23;20447;-81
2023/01/04 21:02:37;;;;;;;0.82;0.80;;;9.40;99.90;;;;;;10284076;23;20063;-82
2023/01/04 21:06:38;;;;;;;1.52;1.00;;;9.40;99.90;;;;;;10283854;23;20460;-82
2023/01/04 21:10:41;;;;;;;2.33;1.20;;;9.40;99.90;;;;;;10284185;23;20000;-81
2023/01/04 21:14:42;;;;;;;1.58;1.02;;;9.40;99.90;;;;;;10285518;23;20438;-81
2023/01/04 21:18:42;;;;;;;0.90;0.80;;;9.40;99.90;;;;;;10288567;23;20012;-81
2023/01/04 21:22:43;;;;;;;1.02;0.73;;;9.40;99.90;;;;;;10285082;23;20005;-81
2023/01/04 21:26:43;;;;;;;1.77;1.00;;;9.40;99.90;;;;;;10284084;23;20001;-81
2023/01/04 21:30:45;;;;;;;2.03;0.90;;;9.30;99.90;;;;;;10285881;23;20012;-81
2023/01/04 21:34:45;;;;;;;1.10;0.75;;;9.20;99.90;;;;;;10282844;23;20009;-80
2023/01/04 21:38:50;;;;;;;0.93;0.63;;;9.30;99.90;;;;;;10284170;23;20009;-80
2023/01/04 21:42:50;;;;;;;2.63;0.73;;;9.40;99.90;;;;;;10282778;23;20063;-80
2023/01/04 21:46:51;;;;;;;1.45;0.70;;;9.40;99.90;;;;;;10282226;23;20660;-80
2023/01/04 21:50:53;;;;;;;0.75;0.70;;;9.40;99.90;;;;;;10282381;23;20136;-81
2023/01/04 21:54:54;;;;;;;1.02;0.77;;;9.30;99.90;;;;;;10282619;23;20012;-80
2023/01/04 21:58:54;;;;;;;1.20;0.70;;;9.30;99.90;;;;;;10283179;23;20009;-80
2023/01/04 22:02:55;;;;;;;1.80;0.70;;;9.40;99.90;;;;;;10283624;23;20039;-81
2023/01/04 22:06:55;;;;;;;1.00;0.70;;;9.40;99.90;;;;;;10285629;23;20015;-81